sensor_id;sensor_type;location;lat;lon;timestamp;P1;durP1;ratioP1;P2;durP2;ratioP2
35691;SDS011;26978;44.830;-0.674;2023-04-03T00:00:49;7.32;;;2.00;;
35691;SDS011;26978;44.830;-0.674;2023-04-03T00:03:15;6.22;;;2.05;;
35691;SDS011;26978;44.830;-0.674;2023-04-03T00:05:42;7.82;;;2.22;;
35691;SDS011;26978;44.830;-0.674;2023-04-03T00:08:07;5.40;;;1.90;;
35691;SDS011;26978;44.830;-0.674;2023-04-03T00:10:34;9.32;;;1.90;;
35691;SDS011;26978;44.830;-0.674;2023-04-03T00:13:02;7.43;;;1.98;;
35691;SDS011;26978;44.830;-0.674;2023-04-03T00:15:31;12.43;;;1.95;;
35691;SDS011;26978;44.830;-0.674;2023-04-03T00:17:57;8.95;;;2.15;;
35691;SDS011;26978;44.830;-0.674;2023-04-03T00:20:22;9.30;;;2.28;;
35691;SDS011;26978;44.830;-0.674;2023-04-03T00:22:48;10.05;;;1.83;;
35691;SDS011;26978;44.830;-0.674;2023-04-03T00:25:14;9.20;;;2.17;;
35691;SDS011;26978;44.830;-0.674;2023-04-03T00:27:40;10.88;;;2.03;;
35691;SDS011;26978;44.830;-0.674;2023-04-03T00:30:06;7.00;;;1.63;;
35691;SDS011;26978;44.830;-0.674;2023-04-03T00:32:33;18.00;;;2.17;;
35691;SDS011;26978;44.830;-0.674;2023-04-03T00:34:59;8.10;;;2.05;;
35691;SDS011;26978;44.830;-0.674;2023-04-03T00:37:25;6.97;;;2.38;;
35691;SDS011;26978;44.830;-0.674;2023-04-03T00:39:50;7.38;;;2.20;;
35691;SDS011;26978;44.830;-0.674;2023-04-03T00:42:16;7.90;;;1.75;;
35691;SDS011;26978;44.830;-0.674;2023-04-03T00:47:09;5.03;;;2.30;;
35691;SDS011;26978;44.830;-0.674;2023-04-03T00:49:37;13.90;;;2.42;;
35691;SDS011;26978;44.830;-0.674;2023-04-03T00:52:04;8.25;;;2.08;;
35691;SDS011;26978;44.830;-0.674;2023-04-03T00:54:32;5.30;;;1.83;;
35691;SDS011;26978;44.830;-0.674;2023-04-03T00:57:01;11.05;;;2.22;;
35691;SDS011;26978;44.830;-0.674;2023-04-03T00:59:27;4.97;;;1.88;;
35691;SDS011;26978;44.830;-0.674;2023-04-03T01:01:58;7.13;;;2.28;;
35691;SDS011;26978;44.830;-0.674;2023-04-03T01:04:41;7.75;;;2.10;;
35691;SDS011;26978;44.830;-0.674;2023-04-03T01:07:09;5.38;;;2.00;;
35691;SDS011;26978;44.830;-0.674;2023-04-03T01:09:38;9.23;;;2.35;;
35691;SDS011;26978;44.830;-0.674;2023-04-03T01:12:18;7.22;;;2.72;;
35691;SDS011;26978;44.830;-0.674;2023-04-03T01:14:44;5.38;;;2.40;;
35691;SDS011;26978;44.830;-0.674;2023-04-03T01:20:05;12.98;;;2.47;;
35691;SDS011;26978;44.830;-0.674;2023-04-03T01:25:31;7.37;;;2.40;;
35691;SDS011;26978;44.830;-0.674;2023-04-03T01:27:58;5.95;;;2.22;;
35691;SDS011;26978;44.830;-0.674;2023-04-03T01:30:25;5.53;;;2.28;;
35691;SDS011;26978;44.830;-0.674;2023-04-03T01:32:56;7.93;;;2.40;;
35691;SDS011;26978;44.830;-0.674;2023-04-03T01:35:22;7.63;;;2.45;;
35691;SDS011;26978;44.830;-0.674;2023-04-03T01:37:48;12.90;;;2.20;;
35691;SDS011;26978;44.830;-0.674;2023-04-03T01:40:14;10.02;;;2.10;;
35691;SDS011;26978;44.830;-0.674;2023-04-03T01:42:40;5.20;;;2.05;;
35691;SDS011;26978;44.830;-0.674;2023-04-03T01:45:05;5.32;;;2.40;;
35691;SDS011;26978;44.830;-0.674;2023-04-03T01:47:31;10.52;;;2.75;;
35691;SDS011;26978;44.830;-0.674;2023-04-03T01:49:57;5.88;;;2.78;;
35691;SDS011;26978;44.830;-0.674;2023-04-03T01:52:23;9.10;;;2.65;;
35691;SDS011;26978;44.830;-0.674;2023-04-03T01:54:49;8.43;;;2.47;;
35691;SDS011;26978;44.830;-0.674;2023-04-03T01:57:15;10.30;;;2.80;;
35691;SDS011;26978;44.830;-0.674;2023-04-03T01:59:41;8.85;;;2.55;;
35691;SDS011;26978;44.830;-0.674;2023-04-03T02:02:07;4.15;;;2.25;;
35691;SDS011;26978;44.830;-0.674;2023-04-03T02:04:33;8.02;;;2.65;;
35691;SDS011;26978;44.830;-0.674;2023-04-03T02:06:59;5.10;;;2.75;;
35691;SDS011;26978;44.830;-0.674;2023-04-03T02:09:25;7.38;;;3.10;;
35691;SDS011;26978;44.830;-0.674;2023-04-03T02:11:51;4.95;;;2.30;;
35691;SDS011;26978;44.830;-0.674;2023-04-03T02:14:17;5.60;;;2.60;;
35691;SDS011;26978;44.830;-0.674;2023-04-03T02:16:43;6.90;;;3.03;;
35691;SDS011;26978;44.830;-0.674;2023-04-03T02:19:09;7.15;;;2.83;;
35691;SDS011;26978;44.830;-0.674;2023-04-03T02:21:34;5.63;;;2.50;;
35691;SDS011;26978;44.830;-0.674;2023-04-03T02:24:00;4.75;;;2.30;;
35691;SDS011;26978;44.830;-0.674;2023-04-03T02:26:26;5.32;;;2.60;;
35691;SDS011;26978;44.830;-0.674;2023-04-03T02:28:51;11.35;;;3.28;;
35691;SDS011;26978;44.830;-0.674;2023-04-03T02:31:17;4.30;;;2.80;;
35691;SDS011;26978;44.830;-0.674;2023-04-03T02:33:44;7.93;;;3.22;;
35691;SDS011;26978;44.830;-0.674;2023-04-03T02:36:10;6.00;;;3.03;;
35691;SDS011;26978;44.830;-0.674;2023-04-03T02:38:35;4.05;;;2.50;;
35691;SDS011;26978;44.830;-0.674;2023-04-03T02:41:09;5.20;;;3.00;;
35691;SDS011;26978;44.830;-0.674;2023-04-03T02:43:36;5.63;;;3.50;;
35691;SDS011;26978;44.830;-0.674;2023-04-03T02:46:02;4.35;;;3.03;;
35691;SDS011;26978;44.830;-0.674;2023-04-03T02:48:27;3.78;;;3.00;;
35691;SDS011;26978;44.830;-0.674;2023-04-03T02:50:53;7.40;;;3.08;;
35691;SDS011;26978;44.830;-0.674;2023-04-03T02:53:19;6.32;;;3.10;;
35691;SDS011;26978;44.830;-0.674;2023-04-03T02:55:45;6.28;;;3.38;;
35691;SDS011;26978;44.830;-0.674;2023-04-03T02:58:11;5.78;;;3.38;;
35691;SDS011;26978;44.830;-0.674;2023-04-03T03:00:37;6.60;;;3.13;;
35691;SDS011;26978;44.830;-0.674;2023-04-03T03:03:03;4.80;;;3.10;;
35691;SDS011;26978;44.830;-0.674;2023-04-03T03:05:29;4.85;;;3.50;;
35691;SDS011;26978;44.830;-0.674;2023-04-03T03:07:55;4.85;;;3.25;;
35691;SDS011;26978;44.830;-0.674;2023-04-03T03:10:21;5.97;;;3.58;;
35691;SDS011;26978;44.830;-0.674;2023-04-03T03:12:48;5.55;;;3.40;;
35691;SDS011;26978;44.830;-0.674;2023-04-03T03:15:14;5.35;;;3.30;;
35691;SDS011;26978;44.830;-0.674;2023-04-03T03:17:41;5.38;;;3.22;;
35691;SDS011;26978;44.830;-0.674;2023-04-03T03:20:07;7.30;;;3.40;;
35691;SDS011;26978;44.830;-0.674;2023-04-03T03:22:33;8.27;;;3.88;;
35691;SDS011;26978;44.830;-0.674;2023-04-03T03:25:00;9.00;;;3.28;;
35691;SDS011;26978;44.830;-0.674;2023-04-03T03:27:27;6.55;;;3.28;;
35691;SDS011;26978;44.830;-0.674;2023-04-03T03:29:52;5.75;;;2.92;;
35691;SDS011;26978;44.830;-0.674;2023-04-03T03:32:18;5.53;;;3.40;;
35691;SDS011;26978;44.830;-0.674;2023-04-03T03:34:44;7.60;;;4.03;;
35691;SDS011;26978;44.830;-0.674;2023-04-03T03:37:10;10.98;;;3.92;;
35691;SDS011;26978;44.830;-0.674;2023-04-03T03:39:35;9.60;;;3.95;;
35691;SDS011;26978;44.830;-0.674;2023-04-03T03:42:01;4.32;;;3.13;;
35691;SDS011;26978;44.830;-0.674;2023-04-03T03:44:27;6.18;;;3.22;;
35691;SDS011;26978;44.830;-0.674;2023-04-03T03:46:54;8.57;;;3.47;;
35691;SDS011;26978;44.830;-0.674;2023-04-03T03:49:20;7.45;;;3.65;;
35691;SDS011;26978;44.830;-0.674;2023-04-03T03:51:45;12.27;;;4.00;;
35691;SDS011;26978;44.830;-0.674;2023-04-03T03:54:12;6.25;;;3.38;;
35691;SDS011;26978;44.830;-0.674;2023-04-03T03:56:38;8.55;;;3.20;;
35691;SDS011;26978;44.830;-0.674;2023-04-03T03:59:03;8.00;;;3.47;;
35691;SDS011;26978;44.830;-0.674;2023-04-03T04:01:29;8.60;;;3.75;;
35691;SDS011;26978;44.830;-0.674;2023-04-03T04:03:55;8.45;;;3.78;;
35691;SDS011;26978;44.830;-0.674;2023-04-03T04:06:21;8.90;;;4.13;;
35691;SDS011;26978;44.830;-0.674;2023-04-03T04:08:46;11.75;;;3.75;;
35691;SDS011;26978;44.830;-0.674;2023-04-03T04:11:12;9.15;;;3.80;;
35691;SDS011;26978;44.830;-0.674;2023-04-03T04:13:38;9.23;;;3.85;;
35691;SDS011;26978;44.830;-0.674;2023-04-03T04:16:03;10.40;;;3.72;;
35691;SDS011;26978;44.830;-0.674;2023-04-03T04:18:30;8.00;;;4.18;;
35691;SDS011;26978;44.830;-0.674;2023-04-03T04:20:55;8.18;;;4.05;;
35691;SDS011;26978;44.830;-0.674;2023-04-03T04:23:21;11.13;;;3.75;;
35691;SDS011;26978;44.830;-0.674;2023-04-03T04:25:47;8.07;;;3.50;;
35691;SDS011;26978;44.830;-0.674;2023-04-03T04:28:14;11.32;;;4.43;;
35691;SDS011;26978;44.830;-0.674;2023-04-03T04:30:40;7.75;;;4.35;;
35691;SDS011;26978;44.830;-0.674;2023-04-03T04:33:06;8.55;;;4.18;;
35691;SDS011;26978;44.830;-0.674;2023-04-03T04:35:32;13.35;;;5.00;;
35691;SDS011;26978;44.830;-0.674;2023-04-03T04:37:57;6.13;;;3.92;;
35691;SDS011;26978;44.830;-0.674;2023-04-03T04:40:23;10.90;;;4.05;;
35691;SDS011;26978;44.830;-0.674;2023-04-03T04:42:49;8.15;;;3.50;;
35691;SDS011;26978;44.830;-0.674;2023-04-03T04:45:15;7.00;;;4.72;;
35691;SDS011;26978;44.830;-0.674;2023-04-03T04:47:41;13.52;;;4.40;;
35691;SDS011;26978;44.830;-0.674;2023-04-03T04:50:07;7.82;;;4.53;;
35691;SDS011;26978;44.830;-0.674;2023-04-03T04:52:33;7.95;;;4.20;;
35691;SDS011;26978;44.830;-0.674;2023-04-03T04:54:58;8.40;;;4.32;;
35691;SDS011;26978;44.830;-0.674;2023-04-03T04:57:24;8.55;;;4.40;;
35691;SDS011;26978;44.830;-0.674;2023-04-03T04:59:50;9.98;;;4.35;;
35691;SDS011;26978;44.830;-0.674;2023-04-03T05:02:16;7.82;;;4.30;;
35691;SDS011;26978;44.830;-0.674;2023-04-03T05:04:42;7.75;;;4.28;;
35691;SDS011;26978;44.830;-0.674;2023-04-03T05:07:07;10.77;;;4.88;;
35691;SDS011;26978;44.830;-0.674;2023-04-03T05:09:33;10.57;;;4.60;;
35691;SDS011;26978;44.830;-0.674;2023-04-03T05:11:58;7.63;;;3.97;;
35691;SDS011;26978;44.830;-0.674;2023-04-03T05:14:24;8.73;;;4.47;;
35691;SDS011;26978;44.830;-0.674;2023-04-03T05:16:50;6.78;;;4.35;;
35691;SDS011;26978;44.830;-0.674;2023-04-03T05:19:19;12.63;;;5.15;;
35691;SDS011;26978;44.830;-0.674;2023-04-03T05:21:46;7.50;;;4.80;;
35691;SDS011;26978;44.830;-0.674;2023-04-03T05:24:12;10.65;;;4.15;;
35691;SDS011;26978;44.830;-0.674;2023-04-03T05:26:38;10.23;;;4.50;;
35691;SDS011;26978;44.830;-0.674;2023-04-03T05:29:03;8.57;;;4.35;;
35691;SDS011;26978;44.830;-0.674;2023-04-03T05:31:29;10.48;;;4.55;;
35691;SDS011;26978;44.830;-0.674;2023-04-03T05:33:55;12.63;;;4.50;;
35691;SDS011;26978;44.830;-0.674;2023-04-03T05:36:21;11.32;;;4.72;;
35691;SDS011;26978;44.830;-0.674;2023-04-03T05:38:47;7.53;;;4.70;;
35691;SDS011;26978;44.830;-0.674;2023-04-03T05:41:13;8.02;;;4.43;;
35691;SDS011;26978;44.830;-0.674;2023-04-03T05:43:39;9.98;;;4.47;;
35691;SDS011;26978;44.830;-0.674;2023-04-03T05:46:12;13.52;;;4.40;;
35691;SDS011;26978;44.830;-0.674;2023-04-03T05:48:38;9.98;;;5.03;;
35691;SDS011;26978;44.830;-0.674;2023-04-03T05:51:05;11.35;;;4.72;;
35691;SDS011;26978;44.830;-0.674;2023-04-03T05:53:31;13.32;;;5.15;;
35691;SDS011;26978;44.830;-0.674;2023-04-03T05:56:00;9.63;;;4.80;;
35691;SDS011;26978;44.830;-0.674;2023-04-03T05:58:26;10.13;;;4.95;;
35691;SDS011;26978;44.830;-0.674;2023-04-03T06:00:52;12.48;;;4.97;;
35691;SDS011;26978;44.830;-0.674;2023-04-03T06:03:17;9.82;;;4.60;;
35691;SDS011;26978;44.830;-0.674;2023-04-03T06:05:43;15.55;;;5.00;;
35691;SDS011;26978;44.830;-0.674;2023-04-03T06:08:08;10.13;;;4.65;;
35691;SDS011;26978;44.830;-0.674;2023-04-03T06:10:34;10.98;;;6.13;;
35691;SDS011;26978;44.830;-0.674;2023-04-03T06:13:01;15.30;;;5.63;;
35691;SDS011;26978;44.830;-0.674;2023-04-03T06:15:26;15.38;;;6.25;;
35691;SDS011;26978;44.830;-0.674;2023-04-03T06:17:53;11.45;;;5.43;;
35691;SDS011;26978;44.830;-0.674;2023-04-03T06:20:18;16.75;;;5.55;;
35691;SDS011;26978;44.830;-0.674;2023-04-03T06:22:44;11.68;;;5.47;;
35691;SDS011;26978;44.830;-0.674;2023-04-03T06:25:10;15.73;;;4.45;;
35691;SDS011;26978;44.830;-0.674;2023-04-03T06:27:37;10.60;;;4.55;;
35691;SDS011;26978;44.830;-0.674;2023-04-03T06:30:02;21.65;;;5.43;;
35691;SDS011;26978;44.830;-0.674;2023-04-03T06:32:29;8.45;;;4.82;;
35691;SDS011;26978;44.830;-0.674;2023-04-03T06:34:54;13.50;;;5.20;;
35691;SDS011;26978;44.830;-0.674;2023-04-03T06:37:21;10.93;;;4.57;;
35691;SDS011;26978;44.830;-0.674;2023-04-03T06:39:48;16.17;;;4.93;;
35691;SDS011;26978;44.830;-0.674;2023-04-03T06:42:13;12.13;;;4.65;;
35691;SDS011;26978;44.830;-0.674;2023-04-03T06:44:39;13.80;;;4.82;;
35691;SDS011;26978;44.830;-0.674;2023-04-03T06:47:05;14.43;;;4.97;;
35691;SDS011;26978;44.830;-0.674;2023-04-03T06:49:31;16.30;;;5.00;;
35691;SDS011;26978;44.830;-0.674;2023-04-03T06:51:57;17.70;;;4.85;;
35691;SDS011;26978;44.830;-0.674;2023-04-03T06:54:23;11.93;;;5.75;;
35691;SDS011;26978;44.830;-0.674;2023-04-03T06:56:48;11.88;;;4.25;;
35691;SDS011;26978;44.830;-0.674;2023-04-03T06:59:15;12.90;;;4.43;;
35691;SDS011;26978;44.830;-0.674;2023-04-03T07:01:41;19.45;;;5.20;;
35691;SDS011;26978;44.830;-0.674;2023-04-03T07:04:07;12.13;;;4.90;;
35691;SDS011;26978;44.830;-0.674;2023-04-03T07:06:33;15.00;;;4.55;;
35691;SDS011;26978;44.830;-0.674;2023-04-03T07:08:59;12.25;;;4.13;;
35691;SDS011;26978;44.830;-0.674;2023-04-03T07:11:25;13.93;;;4.15;;
35691;SDS011;26978;44.830;-0.674;2023-04-03T07:13:51;14.30;;;4.68;;
35691;SDS011;26978;44.830;-0.674;2023-04-03T07:16:17;20.48;;;5.10;;
35691;SDS011;26978;44.830;-0.674;2023-04-03T07:18:44;14.10;;;4.63;;
35691;SDS011;26978;44.830;-0.674;2023-04-03T07:21:10;18.70;;;4.22;;
35691;SDS011;26978;44.830;-0.674;2023-04-03T07:23:36;12.63;;;4.32;;
35691;SDS011;26978;44.830;-0.674;2023-04-03T07:26:02;12.98;;;4.60;;
35691;SDS011;26978;44.830;-0.674;2023-04-03T07:28:28;13.82;;;4.20;;
35691;SDS011;26978;44.830;-0.674;2023-04-03T07:30:59;14.00;;;4.20;;
35691;SDS011;26978;44.830;-0.674;2023-04-03T07:33:27;11.90;;;3.80;;
35691;SDS011;26978;44.830;-0.674;2023-04-03T07:35:53;13.52;;;4.25;;
35691;SDS011;26978;44.830;-0.674;2023-04-03T07:38:19;15.27;;;3.58;;
35691;SDS011;26978;44.830;-0.674;2023-04-03T07:40:48;16.58;;;4.25;;
35691;SDS011;26978;44.830;-0.674;2023-04-03T07:43:15;13.48;;;4.07;;
35691;SDS011;26978;44.830;-0.674;2023-04-03T07:45:42;13.43;;;4.00;;
35691;SDS011;26978;44.830;-0.674;2023-04-03T07:48:08;10.40;;;3.65;;
35691;SDS011;26978;44.830;-0.674;2023-04-03T07:50:35;8.68;;;3.47;;
35691;SDS011;26978;44.830;-0.674;2023-04-03T07:53:02;12.27;;;3.70;;
35691;SDS011;26978;44.830;-0.674;2023-04-03T07:55:28;10.40;;;3.05;;
35691;SDS011;26978;44.830;-0.674;2023-04-03T07:57:53;12.55;;;3.72;;
35691;SDS011;26978;44.830;-0.674;2023-04-03T08:00:20;10.10;;;3.50;;
35691;SDS011;26978;44.830;-0.674;2023-04-03T08:02:46;16.30;;;3.40;;
35691;SDS011;26978;44.830;-0.674;2023-04-03T08:05:15;12.00;;;3.58;;
35691;SDS011;26978;44.830;-0.674;2023-04-03T08:07:42;22.20;;;3.88;;
35691;SDS011;26978;44.830;-0.674;2023-04-03T08:10:08;11.50;;;3.75;;
35691;SDS011;26978;44.830;-0.674;2023-04-03T08:12:34;17.38;;;3.95;;
35691;SDS011;26978;44.830;-0.674;2023-04-03T08:15:02;9.90;;;3.15;;
35691;SDS011;26978;44.830;-0.674;2023-04-03T08:17:28;14.60;;;3.70;;
35691;SDS011;26978;44.830;-0.674;2023-04-03T08:19:54;18.45;;;3.88;;
35691;SDS011;26978;44.830;-0.674;2023-04-03T08:22:20;10.13;;;3.38;;
35691;SDS011;26978;44.830;-0.674;2023-04-03T08:24:45;10.90;;;3.58;;
35691;SDS011;26978;44.830;-0.674;2023-04-03T08:27:11;8.57;;;2.80;;
35691;SDS011;26978;44.830;-0.674;2023-04-03T08:29:37;15.00;;;3.40;;
35691;SDS011;26978;44.830;-0.674;2023-04-03T08:32:03;12.40;;;3.20;;
35691;SDS011;26978;44.830;-0.674;2023-04-03T08:34:30;10.70;;;3.03;;
35691;SDS011;26978;44.830;-0.674;2023-04-03T08:36:59;17.35;;;3.53;;
35691;SDS011;26978;44.830;-0.674;2023-04-03T08:39:25;11.63;;;3.10;;
35691;SDS011;26978;44.830;-0.674;2023-04-03T08:41:52;17.35;;;2.95;;
35691;SDS011;26978;44.830;-0.674;2023-04-03T08:49:48;10.82;;;2.97;;
35691;SDS011;26978;44.830;-0.674;2023-04-03T08:55:02;12.38;;;2.92;;
35691;SDS011;26978;44.830;-0.674;2023-04-03T08:57:50;10.25;;;2.63;;
35691;SDS011;26978;44.830;-0.674;2023-04-03T09:00:23;12.80;;;2.88;;
35691;SDS011;26978;44.830;-0.674;2023-04-03T09:02:51;14.10;;;3.00;;
35691;SDS011;26978;44.830;-0.674;2023-04-03T09:05:19;9.90;;;3.30;;
35691;SDS011;26978;44.830;-0.674;2023-04-03T09:10:29;12.77;;;3.40;;
35691;SDS011;26978;44.830;-0.674;2023-04-03T09:15:35;15.27;;;3.58;;
35691;SDS011;26978;44.830;-0.674;2023-04-03T09:26:26;12.52;;;2.60;;
35691;SDS011;26978;44.830;-0.674;2023-04-03T09:28:58;12.23;;;2.22;;
35691;SDS011;26978;44.830;-0.674;2023-04-03T09:31:29;12.25;;;3.17;;
35691;SDS011;26978;44.830;-0.674;2023-04-03T09:39:11;9.07;;;2.55;;
35691;SDS011;26978;44.830;-0.674;2023-04-03T09:41:54;17.13;;;3.22;;
35691;SDS011;26978;44.830;-0.674;2023-04-03T09:44:21;6.70;;;2.03;;
35691;SDS011;26978;44.830;-0.674;2023-04-03T09:46:49;8.68;;;2.45;;
35691;SDS011;26978;44.830;-0.674;2023-04-03T09:49:15;10.30;;;2.45;;
35691;SDS011;26978;44.830;-0.674;2023-04-03T09:51:40;9.13;;;2.30;;
35691;SDS011;26978;44.830;-0.674;2023-04-03T09:57:12;9.90;;;2.50;;
35691;SDS011;26978;44.830;-0.674;2023-04-03T09:59:55;9.38;;;2.10;;
35691;SDS011;26978;44.830;-0.674;2023-04-03T10:04:58;2.90;;;1.70;;
35691;SDS011;26978;44.830;-0.674;2023-04-03T10:07:34;6.47;;;1.88;;
35691;SDS011;26978;44.830;-0.674;2023-04-03T10:12:39;10.25;;;2.78;;
35691;SDS011;26978;44.830;-0.674;2023-04-03T10:15:10;11.75;;;2.72;;
35691;SDS011;26978;44.830;-0.674;2023-04-03T10:23:18;8.75;;;2.20;;
35691;SDS011;26978;44.830;-0.674;2023-04-03T10:31:15;9.95;;;2.25;;
35691;SDS011;26978;44.830;-0.674;2023-04-03T10:34:23;10.20;;;2.53;;
35691;SDS011;26978;44.830;-0.674;2023-04-03T10:54:00;5.97;;;2.00;;
35691;SDS011;26978;44.830;-0.674;2023-04-03T10:56:55;6.72;;;2.17;;
35691;SDS011;26978;44.830;-0.674;2023-04-03T10:59:27;6.78;;;2.10;;
35691;SDS011;26978;44.830;-0.674;2023-04-03T11:04:57;8.15;;;2.60;;
35691;SDS011;26978;44.830;-0.674;2023-04-03T11:07:38;8.60;;;2.65;;
35691;SDS011;26978;44.830;-0.674;2023-04-03T11:23:47;7.70;;;2.38;;
35691;SDS011;26978;44.830;-0.674;2023-04-03T11:26:17;10.27;;;2.20;;
35691;SDS011;26978;44.830;-0.674;2023-04-03T11:29:25;8.02;;;2.50;;
35691;SDS011;26978;44.830;-0.674;2023-04-03T11:35:47;9.65;;;2.05;;
35691;SDS011;26978;44.830;-0.674;2023-04-03T11:38:28;5.65;;;2.00;;
35691;SDS011;26978;44.830;-0.674;2023-04-03T11:41:01;6.63;;;2.13;;
35691;SDS011;26978;44.830;-0.674;2023-04-03T11:46:51;6.00;;;2.08;;
35691;SDS011;26978;44.830;-0.674;2023-04-03T11:55:35;10.23;;;2.08;;
35691;SDS011;26978;44.830;-0.674;2023-04-03T12:05:51;7.28;;;1.88;;
35691;SDS011;26978;44.830;-0.674;2023-04-03T12:08:30;5.78;;;1.48;;
35691;SDS011;26978;44.830;-0.674;2023-04-03T12:11:20;6.30;;;1.42;;
35691;SDS011;26978;44.830;-0.674;2023-04-03T12:16:55;7.53;;;1.95;;
35691;SDS011;26978;44.830;-0.674;2023-04-03T12:32:34;6.18;;;2.20;;
35691;SDS011;26978;44.830;-0.674;2023-04-03T12:46:23;6.30;;;1.92;;
35691;SDS011;26978;44.830;-0.674;2023-04-03T12:48:52;7.10;;;1.90;;
35691;SDS011;26978;44.830;-0.674;2023-04-03T12:53:52;7.28;;;2.10;;
35691;SDS011;26978;44.830;-0.674;2023-04-03T12:56:27;7.40;;;2.17;;
35691;SDS011;26978;44.830;-0.674;2023-04-03T12:58:55;9.40;;;1.60;;
35691;SDS011;26978;44.830;-0.674;2023-04-03T13:01:38;4.28;;;1.70;;
35691;SDS011;26978;44.830;-0.674;2023-04-03T13:04:04;9.57;;;1.67;;
35691;SDS011;26978;44.830;-0.674;2023-04-03T13:06:40;5.05;;;1.50;;
35691;SDS011;26978;44.830;-0.674;2023-04-03T13:14:36;6.53;;;1.45;;
35691;SDS011;26978;44.830;-0.674;2023-04-03T13:17:14;12.88;;;1.88;;
35691;SDS011;26978;44.830;-0.674;2023-04-03T13:19:41;6.85;;;1.70;;
35691;SDS011;26978;44.830;-0.674;2023-04-03T13:22:11;7.20;;;1.55;;
35691;SDS011;26978;44.830;-0.674;2023-04-03T13:27:13;6.07;;;1.60;;
35691;SDS011;26978;44.830;-0.674;2023-04-03T13:29:39;5.25;;;1.60;;
35691;SDS011;26978;44.830;-0.674;2023-04-03T13:32:05;4.40;;;1.30;;
35691;SDS011;26978;44.830;-0.674;2023-04-03T13:34:40;6.40;;;1.80;;
35691;SDS011;26978;44.830;-0.674;2023-04-03T13:37:19;6.03;;;1.60;;
35691;SDS011;26978;44.830;-0.674;2023-04-03T13:40:11;4.95;;;1.70;;
35691;SDS011;26978;44.830;-0.674;2023-04-03T13:42:38;7.20;;;1.55;;
35691;SDS011;26978;44.830;-0.674;2023-04-03T13:45:16;10.88;;;2.15;;
35691;SDS011;26978;44.830;-0.674;2023-04-03T13:47:45;5.18;;;1.20;;
35691;SDS011;26978;44.830;-0.674;2023-04-03T13:50:20;3.67;;;1.33;;
35691;SDS011;26978;44.830;-0.674;2023-04-03T13:58:30;3.97;;;1.30;;
35691;SDS011;26978;44.830;-0.674;2023-04-03T14:03:41;3.10;;;1.30;;
35691;SDS011;26978;44.830;-0.674;2023-04-03T14:06:08;5.30;;;1.65;;
35691;SDS011;26978;44.830;-0.674;2023-04-03T14:08:37;4.85;;;1.50;;
35691;SDS011;26978;44.830;-0.674;2023-04-03T14:11:02;2.60;;;1.45;;
35691;SDS011;26978;44.830;-0.674;2023-04-03T14:13:30;5.40;;;1.52;;
35691;SDS011;26978;44.830;-0.674;2023-04-03T14:15:56;5.15;;;2.17;;
35691;SDS011;26978;44.830;-0.674;2023-04-03T14:18:21;2.92;;;1.30;;
35691;SDS011;26978;44.830;-0.674;2023-04-03T14:20:48;3.83;;;1.30;;
35691;SDS011;26978;44.830;-0.674;2023-04-03T14:23:14;5.13;;;1.33;;
35691;SDS011;26978;44.830;-0.674;2023-04-03T14:25:40;3.78;;;1.60;;
35691;SDS011;26978;44.830;-0.674;2023-04-03T14:28:14;3.25;;;1.50;;
35691;SDS011;26978;44.830;-0.674;2023-04-03T14:30:44;4.45;;;1.45;;
35691;SDS011;26978;44.830;-0.674;2023-04-03T14:33:15;5.53;;;1.35;;
35691;SDS011;26978;44.830;-0.674;2023-04-03T14:35:42;3.65;;;1.55;;
35691;SDS011;26978;44.830;-0.674;2023-04-03T14:38:21;2.75;;;1.20;;
35691;SDS011;26978;44.830;-0.674;2023-04-03T14:40:51;5.65;;;1.52;;
35691;SDS011;26978;44.830;-0.674;2023-04-03T14:43:18;5.35;;;1.75;;
35691;SDS011;26978;44.830;-0.674;2023-04-03T14:45:45;2.80;;;1.23;;
35691;SDS011;26978;44.830;-0.674;2023-04-03T14:48:15;2.08;;;0.98;;
35691;SDS011;26978;44.830;-0.674;2023-04-03T14:50:44;6.18;;;1.55;;
35691;SDS011;26978;44.830;-0.674;2023-04-03T14:53:10;2.47;;;1.25;;
35691;SDS011;26978;44.830;-0.674;2023-04-03T14:55:39;3.30;;;1.20;;
35691;SDS011;26978;44.830;-0.674;2023-04-03T14:58:08;2.60;;;1.27;;
35691;SDS011;26978;44.830;-0.674;2023-04-03T15:00:37;3.55;;;1.33;;
35691;SDS011;26978;44.830;-0.674;2023-04-03T15:03:03;2.90;;;1.15;;
35691;SDS011;26978;44.830;-0.674;2023-04-03T15:05:29;2.80;;;1.20;;
35691;SDS011;26978;44.830;-0.674;2023-04-03T15:07:54;3.00;;;1.20;;
35691;SDS011;26978;44.830;-0.674;2023-04-03T15:10:23;3.03;;;1.00;;
35691;SDS011;26978;44.830;-0.674;2023-04-03T15:12:51;2.60;;;1.10;;
35691;SDS011;26978;44.830;-0.674;2023-04-03T15:15:18;5.28;;;1.48;;
35691;SDS011;26978;44.830;-0.674;2023-04-03T15:17:45;10.55;;;1.17;;
35691;SDS011;26978;44.830;-0.674;2023-04-03T15:20:17;3.85;;;1.20;;
35691;SDS011;26978;44.830;-0.674;2023-04-03T15:22:44;4.35;;;1.20;;
35691;SDS011;26978;44.830;-0.674;2023-04-03T15:25:11;3.72;;;1.40;;
35691;SDS011;26978;44.830;-0.674;2023-04-03T15:27:37;2.67;;;1.40;;
35691;SDS011;26978;44.830;-0.674;2023-04-03T15:30:04;1.58;;;1.00;;
35691;SDS011;26978;44.830;-0.674;2023-04-03T15:32:31;3.38;;;1.25;;
35691;SDS011;26978;44.830;-0.674;2023-04-03T15:34:56;2.63;;;1.13;;
35691;SDS011;26978;44.830;-0.674;2023-04-03T15:37:22;2.35;;;1.13;;
35691;SDS011;26978;44.830;-0.674;2023-04-03T15:39:48;2.95;;;1.38;;
35691;SDS011;26978;44.830;-0.674;2023-04-03T15:42:14;2.25;;;1.08;;
35691;SDS011;26978;44.830;-0.674;2023-04-03T15:44:39;2.80;;;1.27;;
35691;SDS011;26978;44.830;-0.674;2023-04-03T15:47:05;3.55;;;1.27;;
35691;SDS011;26978;44.830;-0.674;2023-04-03T15:49:34;3.00;;;0.90;;
35691;SDS011;26978;44.830;-0.674;2023-04-03T15:52:00;2.97;;;1.15;;
35691;SDS011;26978;44.830;-0.674;2023-04-03T15:54:26;1.85;;;1.20;;
35691;SDS011;26978;44.830;-0.674;2023-04-03T15:56:54;1.88;;;1.40;;
35691;SDS011;26978;44.830;-0.674;2023-04-03T15:59:20;1.90;;;1.45;;
35691;SDS011;26978;44.830;-0.674;2023-04-03T16:01:46;2.63;;;1.27;;
35691;SDS011;26978;44.830;-0.674;2023-04-03T16:04:13;3.22;;;1.83;;
35691;SDS011;26978;44.830;-0.674;2023-04-03T16:06:39;2.60;;;1.40;;
35691;SDS011;26978;44.830;-0.674;2023-04-03T16:09:06;5.80;;;1.73;;
35691;SDS011;26978;44.830;-0.674;2023-04-03T16:11:32;2.10;;;1.52;;
35691;SDS011;26978;44.830;-0.674;2023-04-03T16:14:00;2.03;;;1.45;;
35691;SDS011;26978;44.830;-0.674;2023-04-03T16:16:25;1.98;;;1.42;;
35691;SDS011;26978;44.830;-0.674;2023-04-03T16:18:52;4.85;;;1.30;;
35691;SDS011;26978;44.830;-0.674;2023-04-03T16:21:20;1.52;;;1.10;;
35691;SDS011;26978;44.830;-0.674;2023-04-03T16:23:46;3.20;;;1.40;;
35691;SDS011;26978;44.830;-0.674;2023-04-03T16:26:12;1.63;;;1.17;;
35691;SDS011;26978;44.830;-0.674;2023-04-03T16:28:38;3.95;;;1.23;;
35691;SDS011;26978;44.830;-0.674;2023-04-03T16:31:04;2.88;;;1.30;;
35691;SDS011;26978;44.830;-0.674;2023-04-03T16:33:30;2.22;;;1.23;;
35691;SDS011;26978;44.830;-0.674;2023-04-03T16:35:56;1.80;;;1.23;;
35691;SDS011;26978;44.830;-0.674;2023-04-03T16:38:22;2.58;;;1.38;;
35691;SDS011;26978;44.830;-0.674;2023-04-03T16:40:48;2.65;;;1.25;;
35691;SDS011;26978;44.830;-0.674;2023-04-03T16:43:14;2.20;;;1.10;;
35691;SDS011;26978;44.830;-0.674;2023-04-03T16:45:41;1.73;;;1.38;;
35691;SDS011;26978;44.830;-0.674;2023-04-03T16:48:07;1.70;;;1.10;;
35691;SDS011;26978;44.830;-0.674;2023-04-03T16:50:33;2.38;;;1.50;;
35691;SDS011;26978;44.830;-0.674;2023-04-03T16:52:59;2.25;;;1.55;;
35691;SDS011;26978;44.830;-0.674;2023-04-03T16:55:24;2.97;;;1.50;;
35691;SDS011;26978;44.830;-0.674;2023-04-03T16:57:50;2.08;;;1.45;;
35691;SDS011;26978;44.830;-0.674;2023-04-03T17:00:16;3.20;;;1.95;;
35691;SDS011;26978;44.830;-0.674;2023-04-03T17:02:41;2.25;;;1.55;;
35691;SDS011;26978;44.830;-0.674;2023-04-03T17:05:07;1.98;;;1.50;;
35691;SDS011;26978;44.830;-0.674;2023-04-03T17:07:33;3.67;;;1.75;;
35691;SDS011;26978;44.830;-0.674;2023-04-03T17:09:59;3.42;;;1.60;;